Terminal Aerodrome Forecast
Issued by NWS

Home | Current Version | Previous Version | Text Only | Print | Product List | Glossary On
Versions: 1 2 3 4 5 6 7 8 9 10 11 12 13 14
000
FTUS43 KICT 241720
TAFHUT
TAF
KHUT 241720Z 2418/2518 33020G30KT P6SM VCSH OVC020
     FM242000 35021G30KT P6SM OVC040
     FM250000 33017KT P6SM OVC100
     FM250700 34010KT P6SM SCT250
     FM251700 28006KT P6SM FEW200=

USA.gov is the U.S. government's official web portal to all federal, state and local government web resources and services.